sensor_id;sensor_type;location;lat;lon;timestamp;pressure;altitude;pressure_sealevel;temperature;humidity
77770;BME280;66961;51.482;9.160;2024-03-07T00:01:53;100178.75;;;3.02;100.00
77770;BME280;66961;51.482;9.160;2024-03-07T00:04:18;100187.66;;;2.87;100.00
77770;BME280;66961;51.482;9.160;2024-03-07T00:06:43;100168.88;;;2.67;100.00
77770;BME280;66961;51.482;9.160;2024-03-07T00:09:09;100180.00;;;2.58;100.00
77770;BME280;66961;51.482;9.160;2024-03-07T00:11:34;100178.91;;;2.48;100.00
77770;BME280;66961;51.482;9.160;2024-03-07T00:13:59;100182.44;;;2.35;100.00
77770;BME280;66961;51.482;9.160;2024-03-07T00:16:24;100184.16;;;2.21;100.00
77770;BME280;66961;51.482;9.160;2024-03-07T00:18:50;100189.25;;;2.10;100.00
77770;BME280;66961;51.482;9.160;2024-03-07T00:21:15;100188.91;;;2.02;100.00
77770;BME280;66961;51.482;9.160;2024-03-07T00:23:40;100183.03;;;1.98;100.00
77770;BME280;66961;51.482;9.160;2024-03-07T00:26:05;100191.19;;;1.94;100.00
77770;BME280;66961;51.482;9.160;2024-03-07T00:28:31;100184.03;;;1.83;100.00
77770;BME280;66961;51.482;9.160;2024-03-07T00:30:56;100187.00;;;1.77;100.00
77770;BME280;66961;51.482;9.160;2024-03-07T00:33:21;100197.75;;;1.73;100.00
77770;BME280;66961;51.482;9.160;2024-03-07T00:35:46;100182.56;;;1.65;100.00
77770;BME280;66961;51.482;9.160;2024-03-07T00:38:11;100193.47;;;1.72;100.00
77770;BME280;66961;51.482;9.160;2024-03-07T00:40:37;100188.88;;;1.75;100.00
77770;BME280;66961;51.482;9.160;2024-03-07T00:43:02;100187.47;;;1.84;100.00
77770;BME280;66961;51.482;9.160;2024-03-07T00:45:27;100184.28;;;1.93;100.00
77770;BME280;66961;51.482;9.160;2024-03-07T00:47:53;100180.66;;;2.08;100.00
77770;BME280;66961;51.482;9.160;2024-03-07T00:50:18;100184.56;;;2.15;100.00
77770;BME280;66961;51.482;9.160;2024-03-07T00:52:43;100173.81;;;2.20;100.00
77770;BME280;66961;51.482;9.160;2024-03-07T00:55:08;100180.31;;;2.27;100.00
77770;BME280;66961;51.482;9.160;2024-03-07T00:57:34;100184.50;;;2.29;100.00
77770;BME280;66961;51.482;9.160;2024-03-07T00:59:59;100183.28;;;2.35;100.00
77770;BME280;66961;51.482;9.160;2024-03-07T01:02:25;100177.31;;;2.33;100.00
77770;BME280;66961;51.482;9.160;2024-03-07T01:04:50;100176.47;;;2.32;100.00
77770;BME280;66961;51.482;9.160;2024-03-07T01:07:15;100168.06;;;2.27;100.00
77770;BME280;66961;51.482;9.160;2024-03-07T01:09:41;100179.38;;;2.28;100.00
77770;BME280;66961;51.482;9.160;2024-03-07T01:12:06;100171.28;;;2.18;100.00
77770;BME280;66961;51.482;9.160;2024-03-07T01:14:31;100172.97;;;2.19;100.00
77770;BME280;66961;51.482;9.160;2024-03-07T01:16:57;100165.41;;;2.15;100.00
77770;BME280;66961;51.482;9.160;2024-03-07T01:19:22;100171.03;;;2.09;100.00
77770;BME280;66961;51.482;9.160;2024-03-07T01:21:48;100162.22;;;1.97;100.00
77770;BME280;66961;51.482;9.160;2024-03-07T01:24:13;100169.63;;;1.90;100.00
77770;BME280;66961;51.482;9.160;2024-03-07T01:26:38;100163.19;;;1.82;100.00
77770;BME280;66961;51.482;9.160;2024-03-07T01:29:04;100173.50;;;1.71;100.00
77770;BME280;66961;51.482;9.160;2024-03-07T01:31:29;100161.84;;;1.62;100.00
77770;BME280;66961;51.482;9.160;2024-03-07T01:33:54;100166.28;;;1.47;100.00
77770;BME280;66961;51.482;9.160;2024-03-07T01:36:19;100161.53;;;1.40;100.00
77770;BME280;66961;51.482;9.160;2024-03-07T01:38:45;100165.63;;;1.29;100.00
77770;BME280;66961;51.482;9.160;2024-03-07T01:41:10;100163.56;;;1.20;100.00
77770;BME280;66961;51.482;9.160;2024-03-07T01:43:35;100157.97;;;1.12;100.00
77770;BME280;66961;51.482;9.160;2024-03-07T01:46:01;100158.44;;;1.05;100.00
77770;BME280;66961;51.482;9.160;2024-03-07T01:48:27;100159.59;;;1.01;100.00
77770;BME280;66961;51.482;9.160;2024-03-07T01:50:53;100157.34;;;0.94;100.00
77770;BME280;66961;51.482;9.160;2024-03-07T01:53:18;100144.84;;;0.85;100.00
77770;BME280;66961;51.482;9.160;2024-03-07T01:55:44;100150.16;;;0.84;100.00
77770;BME280;66961;51.482;9.160;2024-03-07T01:58:12;100148.75;;;0.78;100.00
77770;BME280;66961;51.482;9.160;2024-03-07T02:00:38;100145.84;;;0.69;100.00
77770;BME280;66961;51.482;9.160;2024-03-07T02:03:04;100143.69;;;0.61;100.00
77770;BME280;66961;51.482;9.160;2024-03-07T02:05:29;100147.41;;;0.57;100.00
77770;BME280;66961;51.482;9.160;2024-03-07T02:07:54;100149.56;;;0.50;100.00
77770;BME280;66961;51.482;9.160;2024-03-07T02:10:19;100146.19;;;0.48;100.00
77770;BME280;66961;51.482;9.160;2024-03-07T02:12:45;100141.25;;;0.44;100.00
77770;BME280;66961;51.482;9.160;2024-03-07T02:15:10;100140.69;;;0.39;100.00
77770;BME280;66961;51.482;9.160;2024-03-07T02:17:36;100142.63;;;0.35;100.00
77770;BME280;66961;51.482;9.160;2024-03-07T02:20:02;100128.75;;;0.35;100.00
77770;BME280;66961;51.482;9.160;2024-03-07T02:22:27;100131.53;;;0.31;100.00
77770;BME280;66961;51.482;9.160;2024-03-07T02:24:52;100132.06;;;0.22;100.00
77770;BME280;66961;51.482;9.160;2024-03-07T02:27:17;100130.63;;;0.17;100.00
77770;BME280;66961;51.482;9.160;2024-03-07T02:29:43;100129.13;;;0.13;100.00
77770;BME280;66961;51.482;9.160;2024-03-07T02:32:08;100122.31;;;0.10;100.00
77770;BME280;66961;51.482;9.160;2024-03-07T02:34:34;100129.56;;;0.05;100.00
77770;BME280;66961;51.482;9.160;2024-03-07T02:36:59;100128.81;;;0.03;100.00
77770;BME280;66961;51.482;9.160;2024-03-07T02:39:24;100125.56;;;-0.01;100.00
77770;BME280;66961;51.482;9.160;2024-03-07T02:41:50;100126.84;;;-0.08;100.00
77770;BME280;66961;51.482;9.160;2024-03-07T02:44:15;100124.41;;;-0.11;100.00
77770;BME280;66961;51.482;9.160;2024-03-07T02:46:41;100119.78;;;-0.21;100.00
77770;BME280;66961;51.482;9.160;2024-03-07T02:49:06;100116.94;;;-0.17;100.00
77770;BME280;66961;51.482;9.160;2024-03-07T02:51:31;100111.16;;;-0.22;100.00
77770;BME280;66961;51.482;9.160;2024-03-07T02:53:57;100125.75;;;-0.19;100.00
77770;BME280;66961;51.482;9.160;2024-03-07T02:56:22;100118.97;;;-0.22;100.00
77770;BME280;66961;51.482;9.160;2024-03-07T02:58:48;100115.25;;;-0.18;100.00
77770;BME280;66961;51.482;9.160;2024-03-07T03:01:13;100118.13;;;-0.22;100.00
77770;BME280;66961;51.482;9.160;2024-03-07T03:03:38;100117.53;;;-0.27;100.00
77770;BME280;66961;51.482;9.160;2024-03-07T03:06:03;100119.22;;;-0.26;100.00
77770;BME280;66961;51.482;9.160;2024-03-07T03:08:29;100100.66;;;-0.36;100.00
77770;BME280;66961;51.482;9.160;2024-03-07T03:10:55;100114.75;;;-0.24;100.00
77770;BME280;66961;51.482;9.160;2024-03-07T03:13:20;100116.59;;;-0.26;100.00
77770;BME280;66961;51.482;9.160;2024-03-07T03:15:45;100121.47;;;-0.20;100.00
77770;BME280;66961;51.482;9.160;2024-03-07T03:18:11;100114.91;;;-0.12;100.00
77770;BME280;66961;51.482;9.160;2024-03-07T03:20:36;100121.28;;;-0.02;100.00
77770;BME280;66961;51.482;9.160;2024-03-07T03:23:01;100119.16;;;0.05;100.00
77770;BME280;66961;51.482;9.160;2024-03-07T03:25:27;100105.59;;;0.14;100.00
77770;BME280;66961;51.482;9.160;2024-03-07T03:27:52;100110.94;;;0.27;100.00
77770;BME280;66961;51.482;9.160;2024-03-07T03:30:17;100109.84;;;0.31;100.00
77770;BME280;66961;51.482;9.160;2024-03-07T03:32:43;100111.91;;;0.40;100.00
77770;BME280;66961;51.482;9.160;2024-03-07T03:35:08;100104.66;;;0.45;100.00
77770;BME280;66961;51.482;9.160;2024-03-07T03:37:34;100110.53;;;0.49;100.00
77770;BME280;66961;51.482;9.160;2024-03-07T03:39:59;100105.50;;;0.46;100.00
77770;BME280;66961;51.482;9.160;2024-03-07T03:42:24;100106.44;;;0.45;100.00
77770;BME280;66961;51.482;9.160;2024-03-07T03:44:49;100100.53;;;0.41;100.00
77770;BME280;66961;51.482;9.160;2024-03-07T03:47:15;100103.81;;;0.45;100.00
77770;BME280;66961;51.482;9.160;2024-03-07T03:49:40;100104.56;;;0.47;100.00
77770;BME280;66961;51.482;9.160;2024-03-07T03:52:05;100100.72;;;0.52;100.00
77770;BME280;66961;51.482;9.160;2024-03-07T03:54:31;100113.69;;;0.54;100.00
77770;BME280;66961;51.482;9.160;2024-03-07T03:56:56;100107.00;;;0.64;100.00
77770;BME280;66961;51.482;9.160;2024-03-07T03:59:21;100098.78;;;0.70;100.00
77770;BME280;66961;51.482;9.160;2024-03-07T04:01:46;100090.88;;;0.72;100.00
77770;BME280;66961;51.482;9.160;2024-03-07T04:04:12;100096.09;;;0.72;100.00
77770;BME280;66961;51.482;9.160;2024-03-07T04:06:37;100093.56;;;0.70;100.00
77770;BME280;66961;51.482;9.160;2024-03-07T04:09:02;100080.63;;;0.69;100.00
77770;BME280;66961;51.482;9.160;2024-03-07T04:11:27;100085.00;;;0.68;100.00
77770;BME280;66961;51.482;9.160;2024-03-07T04:13:53;100088.19;;;0.73;100.00
77770;BME280;66961;51.482;9.160;2024-03-07T04:16:18;100081.19;;;0.74;100.00
77770;BME280;66961;51.482;9.160;2024-03-07T04:18:43;100084.44;;;0.77;100.00
77770;BME280;66961;51.482;9.160;2024-03-07T04:21:09;100080.53;;;0.84;100.00
77770;BME280;66961;51.482;9.160;2024-03-07T04:23:34;100088.00;;;0.90;100.00
77770;BME280;66961;51.482;9.160;2024-03-07T04:25:59;100061.53;;;0.82;100.00
77770;BME280;66961;51.482;9.160;2024-03-07T04:28:24;100085.66;;;1.00;100.00
77770;BME280;66961;51.482;9.160;2024-03-07T04:30:50;100086.09;;;1.07;100.00
77770;BME280;66961;51.482;9.160;2024-03-07T04:33:15;100084.06;;;1.12;100.00
77770;BME280;66961;51.482;9.160;2024-03-07T04:35:40;100084.31;;;1.21;100.00
77770;BME280;66961;51.482;9.160;2024-03-07T04:38:05;100086.28;;;1.18;100.00
77770;BME280;66961;51.482;9.160;2024-03-07T04:40:31;100080.31;;;1.16;100.00
77770;BME280;66961;51.482;9.160;2024-03-07T04:42:56;100082.63;;;1.20;100.00
77770;BME280;66961;51.482;9.160;2024-03-07T04:45:21;100087.38;;;1.28;100.00
77770;BME280;66961;51.482;9.160;2024-03-07T04:47:46;100089.06;;;1.29;100.00
77770;BME280;66961;51.482;9.160;2024-03-07T04:50:13;100083.66;;;1.32;100.00
77770;BME280;66961;51.482;9.160;2024-03-07T04:52:39;100084.41;;;1.34;100.00
77770;BME280;66961;51.482;9.160;2024-03-07T04:55:09;100079.81;;;1.38;100.00
77770;BME280;66961;51.482;9.160;2024-03-07T04:57:37;100081.59;;;1.37;100.00
77770;BME280;66961;51.482;9.160;2024-03-07T05:00:03;100079.72;;;1.39;100.00
77770;BME280;66961;51.482;9.160;2024-03-07T05:02:28;100099.41;;;1.45;100.00
77770;BME280;66961;51.482;9.160;2024-03-07T05:04:54;100089.50;;;1.50;100.00
77770;BME280;66961;51.482;9.160;2024-03-07T05:07:19;100093.50;;;1.55;100.00
77770;BME280;66961;51.482;9.160;2024-03-07T05:09:44;100089.31;;;1.53;100.00
77770;BME280;66961;51.482;9.160;2024-03-07T05:12:10;100088.03;;;1.58;100.00
77770;BME280;66961;51.482;9.160;2024-03-07T05:14:35;100093.06;;;1.61;100.00
77770;BME280;66961;51.482;9.160;2024-03-07T05:17:00;100094.56;;;1.65;100.00
77770;BME280;66961;51.482;9.160;2024-03-07T05:19:25;100094.25;;;1.70;100.00
77770;BME280;66961;51.482;9.160;2024-03-07T05:21:51;100091.66;;;1.70;100.00
77770;BME280;66961;51.482;9.160;2024-03-07T05:24:16;100081.00;;;1.73;100.00
77770;BME280;66961;51.482;9.160;2024-03-07T05:26:41;100091.16;;;1.78;100.00
77770;BME280;66961;51.482;9.160;2024-03-07T05:29:08;100090.88;;;1.82;100.00
77770;BME280;66961;51.482;9.160;2024-03-07T05:31:38;100091.72;;;1.83;100.00
77770;BME280;66961;51.482;9.160;2024-03-07T05:34:04;100098.72;;;1.82;100.00
77770;BME280;66961;51.482;9.160;2024-03-07T05:36:31;100092.63;;;1.82;100.00
77770;BME280;66961;51.482;9.160;2024-03-07T05:38:56;100091.06;;;1.79;100.00
77770;BME280;66961;51.482;9.160;2024-03-07T05:41:21;100096.09;;;1.82;100.00
77770;BME280;66961;51.482;9.160;2024-03-07T05:43:47;100097.56;;;1.86;100.00
77770;BME280;66961;51.482;9.160;2024-03-07T05:46:12;100104.91;;;1.94;100.00
77770;BME280;66961;51.482;9.160;2024-03-07T05:48:37;100094.56;;;1.92;100.00
77770;BME280;66961;51.482;9.160;2024-03-07T05:51:02;100098.84;;;1.93;100.00
77770;BME280;66961;51.482;9.160;2024-03-07T05:53:28;100097.63;;;1.99;100.00
77770;BME280;66961;51.482;9.160;2024-03-07T05:55:54;100106.19;;;2.01;100.00
77770;BME280;66961;51.482;9.160;2024-03-07T05:58:19;100104.81;;;1.95;100.00
77770;BME280;66961;51.482;9.160;2024-03-07T06:00:45;100106.31;;;1.99;100.00
77770;BME280;66961;51.482;9.160;2024-03-07T06:03:11;100093.53;;;1.95;100.00
77770;BME280;66961;51.482;9.160;2024-03-07T06:05:36;100104.72;;;1.97;100.00
77770;BME280;66961;51.482;9.160;2024-03-07T06:08:01;100098.00;;;1.93;100.00
77770;BME280;66961;51.482;9.160;2024-03-07T06:10:26;100106.78;;;1.92;100.00
77770;BME280;66961;51.482;9.160;2024-03-07T06:12:52;100089.63;;;1.88;100.00
77770;BME280;66961;51.482;9.160;2024-03-07T06:15:18;100091.13;;;1.92;100.00
77770;BME280;66961;51.482;9.160;2024-03-07T06:17:43;100087.47;;;1.94;100.00
77770;BME280;66961;51.482;9.160;2024-03-07T06:20:08;100091.00;;;1.93;100.00
77770;BME280;66961;51.482;9.160;2024-03-07T06:22:34;100083.06;;;1.95;100.00
77770;BME280;66961;51.482;9.160;2024-03-07T06:24:59;100086.53;;;1.95;100.00
77770;BME280;66961;51.482;9.160;2024-03-07T06:27:24;100075.88;;;1.98;100.00
77770;BME280;66961;51.482;9.160;2024-03-07T06:29:50;100088.63;;;2.03;100.00
77770;BME280;66961;51.482;9.160;2024-03-07T06:32:15;100097.97;;;2.07;100.00
77770;BME280;66961;51.482;9.160;2024-03-07T06:34:40;100087.25;;;2.10;100.00
77770;BME280;66961;51.482;9.160;2024-03-07T06:37:05;100106.94;;;2.16;100.00
77770;BME280;66961;51.482;9.160;2024-03-07T06:39:31;100103.81;;;2.23;100.00
77770;BME280;66961;51.482;9.160;2024-03-07T06:41:56;100098.09;;;2.31;100.00
77770;BME280;66961;51.482;9.160;2024-03-07T06:44:21;100102.91;;;2.37;100.00
77770;BME280;66961;51.482;9.160;2024-03-07T06:46:46;100098.81;;;2.33;100.00
77770;BME280;66961;51.482;9.160;2024-03-07T06:49:11;100094.66;;;2.43;100.00
77770;BME280;66961;51.482;9.160;2024-03-07T06:51:37;100090.78;;;2.49;100.00
77770;BME280;66961;51.482;9.160;2024-03-07T06:54:02;100098.97;;;2.57;100.00
77770;BME280;66961;51.482;9.160;2024-03-07T06:56:27;100098.41;;;2.64;100.00
77770;BME280;66961;51.482;9.160;2024-03-07T06:58:53;100100.63;;;2.71;100.00
77770;BME280;66961;51.482;9.160;2024-03-07T07:01:18;100102.09;;;2.75;100.00
77770;BME280;66961;51.482;9.160;2024-03-07T07:03:43;100098.22;;;2.80;100.00
77770;BME280;66961;51.482;9.160;2024-03-07T07:06:09;100086.50;;;2.73;100.00
77770;BME280;66961;51.482;9.160;2024-03-07T07:08:34;100099.16;;;2.79;100.00
77770;BME280;66961;51.482;9.160;2024-03-07T07:11:00;100104.72;;;2.87;100.00
77770;BME280;66961;51.482;9.160;2024-03-07T07:13:25;100098.44;;;2.90;100.00
77770;BME280;66961;51.482;9.160;2024-03-07T07:15:50;100104.81;;;2.98;100.00
77770;BME280;66961;51.482;9.160;2024-03-07T07:18:16;100102.94;;;3.01;100.00
77770;BME280;66961;51.482;9.160;2024-03-07T07:20:43;100098.22;;;3.06;100.00
77770;BME280;66961;51.482;9.160;2024-03-07T07:23:08;100097.91;;;3.10;100.00
77770;BME280;66961;51.482;9.160;2024-03-07T07:25:33;100097.44;;;3.16;100.00
77770;BME280;66961;51.482;9.160;2024-03-07T07:27:59;100097.84;;;3.23;100.00
77770;BME280;66961;51.482;9.160;2024-03-07T07:30:24;100100.47;;;3.23;100.00
77770;BME280;66961;51.482;9.160;2024-03-07T07:32:51;100093.22;;;3.26;100.00
77770;BME280;66961;51.482;9.160;2024-03-07T07:35:17;100094.47;;;3.33;100.00
77770;BME280;66961;51.482;9.160;2024-03-07T07:37:44;100096.16;;;3.35;100.00
77770;BME280;66961;51.482;9.160;2024-03-07T07:40:13;100090.06;;;3.34;100.00
77770;BME280;66961;51.482;9.160;2024-03-07T07:42:39;100085.22;;;3.41;100.00
77770;BME280;66961;51.482;9.160;2024-03-07T07:45:06;100087.75;;;3.42;100.00
77770;BME280;66961;51.482;9.160;2024-03-07T07:47:31;100093.38;;;3.49;100.00
77770;BME280;66961;51.482;9.160;2024-03-07T07:49:57;100073.88;;;3.53;100.00
77770;BME280;66961;51.482;9.160;2024-03-07T07:52:22;100091.50;;;3.75;100.00
77770;BME280;66961;51.482;9.160;2024-03-07T07:54:47;100076.16;;;3.81;100.00
77770;BME280;66961;51.482;9.160;2024-03-07T07:57:13;100082.91;;;3.96;100.00
77770;BME280;66961;51.482;9.160;2024-03-07T07:59:38;100076.97;;;4.06;100.00
77770;BME280;66961;51.482;9.160;2024-03-07T08:02:03;100077.97;;;4.27;100.00
77770;BME280;66961;51.482;9.160;2024-03-07T08:04:28;100075.53;;;4.48;99.82
77770;BME280;66961;51.482;9.160;2024-03-07T08:06:54;100077.72;;;4.65;98.81
77770;BME280;66961;51.482;9.160;2024-03-07T08:09:19;100080.09;;;4.79;97.52
77770;BME280;66961;51.482;9.160;2024-03-07T08:11:44;100086.91;;;4.93;96.92
77770;BME280;66961;51.482;9.160;2024-03-07T08:14:09;100073.91;;;5.03;97.31
77770;BME280;66961;51.482;9.160;2024-03-07T08:16:35;100082.50;;;5.16;97.15
77770;BME280;66961;51.482;9.160;2024-03-07T08:19:00;100086.56;;;5.20;96.20
77770;BME280;66961;51.482;9.160;2024-03-07T08:21:25;100079.75;;;5.17;96.24
77770;BME280;66961;51.482;9.160;2024-03-07T08:23:51;100088.19;;;5.32;95.65
77770;BME280;66961;51.482;9.160;2024-03-07T08:26:16;100083.91;;;5.31;94.91
77770;BME280;66961;51.482;9.160;2024-03-07T08:28:41;100076.38;;;5.38;95.47
77770;BME280;66961;51.482;9.160;2024-03-07T08:31:07;100088.91;;;5.34;94.92
77770;BME280;66961;51.482;9.160;2024-03-07T08:33:32;100091.78;;;5.42;95.17
77770;BME280;66961;51.482;9.160;2024-03-07T08:35:57;100086.25;;;5.56;94.25
77770;BME280;66961;51.482;9.160;2024-03-07T08:38:22;100076.84;;;5.43;93.15
77770;BME280;66961;51.482;9.160;2024-03-07T08:40:48;100084.00;;;5.41;93.19
77770;BME280;66961;51.482;9.160;2024-03-07T08:43:13;100079.59;;;5.41;93.76
77770;BME280;66961;51.482;9.160;2024-03-07T08:45:38;100078.66;;;5.31;93.78
77770;BME280;66961;51.482;9.160;2024-03-07T08:48:04;100083.41;;;5.37;95.37
77770;BME280;66961;51.482;9.160;2024-03-07T08:50:29;100077.22;;;5.27;95.34
77770;BME280;66961;51.482;9.160;2024-03-07T08:52:55;100080.91;;;5.36;95.57
77770;BME280;66961;51.482;9.160;2024-03-07T08:55:24;100078.88;;;5.39;96.24
77770;BME280;66961;51.482;9.160;2024-03-07T08:57:49;100072.53;;;5.53;96.04
77770;BME280;66961;51.482;9.160;2024-03-07T09:00:15;100074.75;;;5.69;95.15
77770;BME280;66961;51.482;9.160;2024-03-07T09:02:41;100070.84;;;5.84;93.61
77770;BME280;66961;51.482;9.160;2024-03-07T09:05:06;100074.44;;;5.83;92.92
77770;BME280;66961;51.482;9.160;2024-03-07T09:07:32;100078.53;;;5.76;92.64
77770;BME280;66961;51.482;9.160;2024-03-07T09:09:58;100072.53;;;5.85;92.68
77770;BME280;66961;51.482;9.160;2024-03-07T09:12:23;100075.53;;;5.80;92.34
77770;BME280;66961;51.482;9.160;2024-03-07T09:14:49;100077.31;;;5.80;93.42
77770;BME280;66961;51.482;9.160;2024-03-07T09:17:14;100079.84;;;5.92;93.30
77770;BME280;66961;51.482;9.160;2024-03-07T09:19:39;100069.97;;;6.06;92.49
77770;BME280;66961;51.482;9.160;2024-03-07T09:22:04;100078.28;;;5.90;91.58
77770;BME280;66961;51.482;9.160;2024-03-07T09:24:30;100073.25;;;5.87;93.11
77770;BME280;66961;51.482;9.160;2024-03-07T09:26:56;100072.06;;;5.91;93.07
77770;BME280;66961;51.482;9.160;2024-03-07T09:29:22;100071.94;;;5.92;93.08
77770;BME280;66961;51.482;9.160;2024-03-07T09:31:51;100069.66;;;5.88;93.21
77770;BME280;66961;51.482;9.160;2024-03-07T09:34:17;100073.25;;;5.87;92.88
77770;BME280;66961;51.482;9.160;2024-03-07T09:36:43;100070.97;;;5.82;92.58
77770;BME280;66961;51.482;9.160;2024-03-07T09:39:08;100076.31;;;5.71;93.41
77770;BME280;66961;51.482;9.160;2024-03-07T09:41:34;100081.28;;;5.74;94.71
77770;BME280;66961;51.482;9.160;2024-03-07T09:43:59;100067.19;;;5.75;94.39
77770;BME280;66961;51.482;9.160;2024-03-07T09:46:25;100075.31;;;5.72;94.16
77770;BME280;66961;51.482;9.160;2024-03-07T09:48:50;100066.34;;;5.75;93.84
77770;BME280;66961;51.482;9.160;2024-03-07T09:51:19;100072.25;;;5.67;94.06
77770;BME280;66961;51.482;9.160;2024-03-07T09:53:45;100075.97;;;5.53;94.76
77770;BME280;66961;51.482;9.160;2024-03-07T09:56:12;100070.00;;;5.62;94.91
77770;BME280;66961;51.482;9.160;2024-03-07T09:58:39;100071.09;;;5.81;95.41
77770;BME280;66961;51.482;9.160;2024-03-07T10:01:06;100072.19;;;5.89;94.30
77770;BME280;66961;51.482;9.160;2024-03-07T10:03:33;100072.06;;;5.91;94.41
77770;BME280;66961;51.482;9.160;2024-03-07T10:06:00;100065.09;;;6.01;94.85
77770;BME280;66961;51.482;9.160;2024-03-07T10:08:25;100065.63;;;6.37;93.73
77770;BME280;66961;51.482;9.160;2024-03-07T10:10:51;100065.28;;;6.72;91.95
77770;BME280;66961;51.482;9.160;2024-03-07T10:13:17;100065.03;;;6.84;88.89
77770;BME280;66961;51.482;9.160;2024-03-07T10:15:42;100068.38;;;7.17;88.85
77770;BME280;66961;51.482;9.160;2024-03-07T10:18:08;100064.66;;;7.29;87.80
77770;BME280;66961;51.482;9.160;2024-03-07T10:20:34;100070.16;;;7.66;86.82
77770;BME280;66961;51.482;9.160;2024-03-07T10:22:59;100062.13;;;7.77;83.10
77770;BME280;66961;51.482;9.160;2024-03-07T10:25:25;100062.69;;;8.00;83.76
77770;BME280;66961;51.482;9.160;2024-03-07T10:27:50;100054.88;;;8.27;81.01
77770;BME280;66961;51.482;9.160;2024-03-07T10:30:16;100050.31;;;8.29;80.48
77770;BME280;66961;51.482;9.160;2024-03-07T10:32:42;100052.72;;;8.70;78.76
77770;BME280;66961;51.482;9.160;2024-03-07T10:35:07;100050.97;;;8.41;76.45
77770;BME280;66961;51.482;9.160;2024-03-07T10:37:34;100052.94;;;8.29;77.00
77770;BME280;66961;51.482;9.160;2024-03-07T10:40:00;100054.31;;;8.34;77.57
77770;BME280;66961;51.482;9.160;2024-03-07T10:42:28;100049.53;;;8.66;78.33
77770;BME280;66961;51.482;9.160;2024-03-07T10:44:58;100053.19;;;8.92;75.23
77770;BME280;66961;51.482;9.160;2024-03-07T10:47:27;100054.97;;;9.02;75.28
77770;BME280;66961;51.482;9.160;2024-03-07T10:52:39;100047.91;;;8.55;74.21
77770;BME280;66961;51.482;9.160;2024-03-07T10:55:15;100048.22;;;9.17;73.61
77770;BME280;66961;51.482;9.160;2024-03-07T10:57:50;100044.97;;;9.50;71.20
77770;BME280;66961;51.482;9.160;2024-03-07T11:00:16;100048.50;;;9.41;70.99
77770;BME280;66961;51.482;9.160;2024-03-07T11:02:46;100038.91;;;9.13;69.28
77770;BME280;66961;51.482;9.160;2024-03-07T11:05:12;100043.59;;;8.91;72.65
77770;BME280;66961;51.482;9.160;2024-03-07T11:07:38;100039.72;;;8.49;74.46
77770;BME280;66961;51.482;9.160;2024-03-07T11:10:05;100030.03;;;8.01;74.96
77770;BME280;66961;51.482;9.160;2024-03-07T11:12:30;100030.19;;;7.71;77.99
77770;BME280;66961;51.482;9.160;2024-03-07T11:14:56;100033.59;;;7.42;80.60
77770;BME280;66961;51.482;9.160;2024-03-07T11:17:23;100019.56;;;7.32;82.02
77770;BME280;66961;51.482;9.160;2024-03-07T11:19:48;100023.56;;;7.17;81.84
77770;BME280;66961;51.482;9.160;2024-03-07T11:22:32;100016.94;;;7.22;81.80
77770;BME280;66961;51.482;9.160;2024-03-07T11:25:05;100020.63;;;7.10;83.12
77770;BME280;66961;51.482;9.160;2024-03-07T11:27:30;100013.53;;;7.01;83.64
77770;BME280;66961;51.482;9.160;2024-03-07T11:30:07;100013.31;;;7.33;83.76
77770;BME280;66961;51.482;9.160;2024-03-07T11:32:35;100013.09;;;7.65;82.74
77770;BME280;66961;51.482;9.160;2024-03-07T11:35:04;100002.53;;;7.84;80.94
77770;BME280;66961;51.482;9.160;2024-03-07T11:37:45;99997.91;;;8.25;80.42
77770;BME280;66961;51.482;9.160;2024-03-07T11:40:11;99993.47;;;8.25;78.05
77770;BME280;66961;51.482;9.160;2024-03-07T11:42:36;99993.72;;;8.42;77.13
77770;BME280;66961;51.482;9.160;2024-03-07T11:45:02;99985.47;;;8.54;76.60
77770;BME280;66961;51.482;9.160;2024-03-07T11:47:36;99984.44;;;8.75;75.13
77770;BME280;66961;51.482;9.160;2024-03-07T11:50:02;99985.41;;;9.01;74.17
77770;BME280;66961;51.482;9.160;2024-03-07T11:52:27;99983.47;;;8.93;71.47
77770;BME280;66961;51.482;9.160;2024-03-07T11:54:53;99971.41;;;8.63;70.28
77770;BME280;66961;51.482;9.160;2024-03-07T11:57:19;99969.59;;;8.64;67.62
77770;BME280;66961;51.482;9.160;2024-03-07T11:59:45;99973.63;;;8.58;65.98
77770;BME280;66961;51.482;9.160;2024-03-07T12:02:13;99973.41;;;8.42;63.74
77770;BME280;66961;51.482;9.160;2024-03-07T12:04:39;99969.59;;;8.64;65.21
77770;BME280;66961;51.482;9.160;2024-03-07T12:07:04;99963.78;;;8.51;64.53
77770;BME280;66961;51.482;9.160;2024-03-07T12:09:30;99962.59;;;8.73;63.87
77770;BME280;66961;51.482;9.160;2024-03-07T12:11:55;99966.19;;;8.81;63.43
77770;BME280;66961;51.482;9.160;2024-03-07T12:14:20;99955.28;;;8.84;63.39
77770;BME280;66961;51.482;9.160;2024-03-07T12:16:46;99959.38;;;8.79;65.40
77770;BME280;66961;51.482;9.160;2024-03-07T12:19:12;99948.47;;;9.09;62.90
77770;BME280;66961;51.482;9.160;2024-03-07T12:21:37;99952.72;;;9.55;61.65
77770;BME280;66961;51.482;9.160;2024-03-07T12:24:12;99944.34;;;9.24;59.37
77770;BME280;66961;51.482;9.160;2024-03-07T12:26:38;99951.34;;;9.16;61.53
77770;BME280;66961;51.482;9.160;2024-03-07T12:29:07;99947.06;;;9.33;60.33
77770;BME280;66961;51.482;9.160;2024-03-07T12:31:33;99937.44;;;9.14;60.66
77770;BME280;66961;51.482;9.160;2024-03-07T12:33:58;99941.19;;;8.93;60.94
77770;BME280;66961;51.482;9.160;2024-03-07T12:36:23;99929.22;;;9.70;61.07
77770;BME280;66961;51.482;9.160;2024-03-07T12:38:53;99935.13;;;9.90;59.34
77770;BME280;66961;51.482;9.160;2024-03-07T12:41:18;99929.44;;;9.77;58.00
77770;BME280;66961;51.482;9.160;2024-03-07T12:43:44;99925.66;;;9.61;59.20
77770;BME280;66961;51.482;9.160;2024-03-07T12:46:12;99925.28;;;9.21;59.11
77770;BME280;66961;51.482;9.160;2024-03-07T12:48:38;99922.59;;;8.85;60.94
77770;BME280;66961;51.482;9.160;2024-03-07T12:51:03;99930.50;;;8.68;63.03